CheckWX is a tool to help pilots better visualize weather data.  It is not intended as a substitute for an official pre-flight weather briefing.

02:28:38 UTC

KJBR TAF
Jonesboro Municipal Airport
Jonesboro, Arkansas, USA
KJBR 122347Z 1300/1324 17003KT P6SM SCT250 FM130800 13003KT P6SM BKN015 FM131000 16006KT P6SM OVC007 TEMPO 1310/1314 2SM BR FM131800 20005KT P6SM OVC015 FM132100 24004KT P6SM BKN050

Dec-13@
00:00 UTC

Dec-13 @ 00:00 UTC

Dec-13@
08:00 UTC

Dec-13 @ 08:00 UTC

KJBR 122347Z 1300/1324 17003KT P6SM SCT250
Wind
  • 170° at 3 KTS
Cloud Levels
  • Scattered at 25,000' AGL

Dec-13@
08:00 UTC

Dec-13 @ 08:00 UTC

Dec-13@
10:00 UTC

Dec-13 @ 10:00 UTC

FM130800 13003KT P6SM BKN015

From

From Standard forecast or significant change

Wind
  • 130° at 3 KTS
Cloud Levels
  • Broken at 1,500' AGL

Dec-13@
10:00 UTC

Dec-13 @ 10:00 UTC

Dec-13@
14:00 UTC

Dec-13 @ 14:00 UTC

TEMPO 1310/1314 2SM BR

Temporary

Temporary Changes expected for less than half the time period

Conditions
Mist

Dec-13@
10:00 UTC

Dec-13 @ 10:00 UTC

Dec-13@
18:00 UTC

Dec-13 @ 18:00 UTC

FM131000 16006KT P6SM OVC007

From

From Standard forecast or significant change

Wind
  • 160° at 6 KTS
Cloud Levels
  • Overcast at 700' AGL

Dec-13@
18:00 UTC

Dec-13 @ 18:00 UTC

Dec-13@
21:00 UTC

Dec-13 @ 21:00 UTC

FM131800 20005KT P6SM OVC015

From

From Standard forecast or significant change

Wind
  • 200° at 5 KTS
Cloud Levels
  • Overcast at 1,500' AGL

Dec-13@
21:00 UTC

Dec-13 @ 21:00 UTC

Dec-14@
00:00 UTC

Dec-14 @ 00:00 UTC

FM132100 24004KT P6SM BKN050

From

From Standard forecast or significant change

Wind
  • 240° at 4 KTS
Cloud Levels
  • Broken at 5,000' AGL